Time;durP1;ratioP1;P1;durP2;ratioP2;P2;SDS_P1;SDS_P2;PMS_P1;PMS_P2;Temp;Humidity;BMP_temperature;BMP_pressure;BME280_temperature;BME280_humidity;BME280_pressure;Samples;Min_cycle;Max_cycle;Signal;HPM_P1;HPM_P2
2021/04/28 00:02:25;;;;;;;8.18;2.97;;;;;;;22.26;12.49;97817.88;5051813;28;20520;-85
2021/04/28 00:04:51;;;;;;;5.25;2.65;;;;;;;22.44;12.45;97823.91;5039003;28;20025;-85
2021/04/28 00:07:17;;;;;;;4.45;2.72;;;;;;;22.55;12.37;97828.06;5045723;28;20030;-85
2021/04/28 00:09:43;;;;;;;7.43;3.38;;;;;;;22.66;12.32;97822.31;5039544;28;20514;-85
2021/04/28 00:12:10;;;;;;;7.15;3.05;;;;;;;23.07;11.77;97824.63;5046851;28;20573;-84
2021/04/28 00:14:36;;;;;;;5.32;3.50;;;;;;;22.95;12.11;97825.28;5049086;28;20040;-84
2021/04/28 00:17:02;;;;;;;8.48;3.17;;;;;;;22.73;12.18;97815.78;5052647;28;20040;-84
2021/04/28 00:19:29;;;;;;;7.03;3.05;;;;;;;22.76;12.05;97807.28;5048363;28;20029;-84
2021/04/28 00:21:55;;;;;;;8.48;3.35;;;;;;;22.70;12.41;97809.03;5042059;28;20423;-85
2021/04/28 00:24:21;;;;;;;6.38;2.88;;;;;;;22.62;12.52;97804.78;5042460;28;20037;-85
2021/04/28 00:26:48;;;;;;;6.88;3.00;;;;;;;22.71;12.19;97815.41;5038557;28;20025;-84
2021/04/28 00:29:14;;;;;;;6.85;3.58;;;;;;;22.45;12.53;97809.47;5045217;28;20129;-84
2021/04/28 00:31:40;;;;;;;7.43;3.58;;;;;;;22.46;12.63;97811.06;5056825;28;20028;-84
2021/04/28 00:34:06;;;;;;;6.70;3.42;;;;;;;22.61;12.40;97815.19;5058675;28;20401;-85
2021/04/28 00:36:32;;;;;;;6.38;3.50;;;;;;;22.36;12.78;97817.66;5045385;28;20036;-85
2021/04/28 00:38:58;;;;;;;9.20;3.85;;;;;;;22.00;13.10;97811.16;5042851;28;20065;-84
2021/04/28 00:41:25;;;;;;;9.25;3.50;;;;;;;21.96;13.25;97811.19;5046384;28;20470;-85
2021/04/28 00:43:51;;;;;;;10.15;4.35;;;;;;;21.65;13.47;97818.09;5045360;28;20033;-84
2021/04/28 00:46:17;;;;;;;9.85;4.55;;;;;;;21.36;13.71;97808.56;5045203;28;20056;-84
2021/04/28 00:48:44;;;;;;;6.90;3.63;;;;;;;21.35;13.83;97818.94;5051654;28;20417;-84
2021/04/28 00:51:10;;;;;;;7.68;4.15;;;;;;;21.64;13.53;97815.72;5050855;28;20041;-85
2021/04/28 00:53:36;;;;;;;7.00;3.33;;;;;;;21.27;13.86;97814.69;5044086;28;20116;-84
2021/04/28 00:56:03;;;;;;;10.02;3.20;;;;;;;21.39;13.97;97812.53;5043323;28;20100;-84
2021/04/28 00:58:29;;;;;;;7.93;3.35;;;;;;;21.66;13.60;97814.09;5039864;28;20048;-84
2021/04/28 01:00:56;;;;;;;8.45;3.53;;;;;;;21.63;13.55;97819.75;5045042;28;20387;-84
2021/04/28 01:03:27;;;;;;;6.32;3.40;;;;;;;21.93;13.25;97817.66;5038777;28;20566;-84
2021/04/28 01:05:59;;;;;;;7.80;3.22;;;;;;;22.42;12.66;97812.34;5038576;28;20078;-84
2021/04/28 01:08:25;;;;;;;7.78;3.42;;;;;;;22.72;12.51;97809.38;5041367;28;20042;-84
2021/04/28 01:10:52;;;;;;;8.27;3.72;;;;;;;22.43;12.90;97811.91;5047007;28;20033;-84
2021/04/28 01:13:20;;;;;;;9.15;3.42;;;;;;;22.61;12.61;97814.41;5042392;28;20033;-84
2021/04/28 01:15:47;;;;;;;6.25;3.58;;;;;;;22.32;12.88;97810.53;5043291;28;20482;-84
2021/04/28 01:18:17;;;;;;;6.55;2.90;;;;;;;22.22;12.96;97812.31;5041476;28;20045;-84
2021/04/28 01:20:44;;;;;;;7.00;3.95;;;;;;;21.99;13.18;97809.56;5045857;28;20028;-84
2021/04/28 01:23:13;;;;;;;9.60;4.03;;;;;;;21.74;13.45;97811.97;5036812;28;20044;-84
2021/04/28 01:25:39;;;;;;;7.68;3.33;;;;;;;22.08;12.87;97820.19;5042794;28;20030;-84
2021/04/28 01:28:05;;;;;;;5.45;3.10;;;;;;;22.37;12.78;97807.25;5046471;28;20492;-84
2021/04/28 01:30:41;;;;;;;6.22;3.53;;;;;;;22.11;13.14;97814.53;5039062;28;20044;-84
2021/04/28 01:33:35;;;;;;;8.85;3.67;;;;;;;21.98;13.30;97813.59;5044218;28;20036;-84
2021/04/28 01:36:03;;;;;;;10.40;4.53;;;;;;;21.95;13.33;97818.03;5043532;28;20120;-84
2021/04/28 01:38:34;;;;;;;9.55;3.63;;;;;;;22.10;13.01;97809.38;5043668;28;20130;-84
2021/04/28 01:41:00;;;;;;;10.52;4.68;;;;;;;22.19;13.00;97807.59;5047612;28;20530;-85
2021/04/28 01:43:27;;;;;;;7.53;4.13;;;;;;;22.26;13.02;97812.28;5041051;28;20442;-84
2021/04/28 01:45:55;;;;;;;8.13;4.22;;;;;;;22.17;13.22;97804.44;5035906;28;20029;-84
2021/04/28 01:48:21;;;;;;;8.70;4.43;;;;;;;21.93;13.33;97812.06;5041010;28;20037;-84
2021/04/28 01:50:49;;;;;;;6.60;3.60;;;;;;;22.20;12.77;97806.38;5038960;28;20072;-85
2021/04/28 01:53:17;;;;;;;8.93;4.05;;;;;;;22.29;12.75;97803.81;5047972;28;20033;-84
2021/04/28 01:55:44;;;;;;;7.38;3.85;;;;;;;22.25;12.72;97808.69;5048835;28;20041;-84
2021/04/28 01:58:12;;;;;;;6.43;3.13;;;;;;;22.50;12.54;97806.19;5044732;28;20037;-85
2021/04/28 02:00:39;;;;;;;8.10;4.25;;;;;;;22.82;12.39;97799.19;5039611;28;20052;-84
2021/04/28 02:03:06;;;;;;;10.63;3.88;;;;;;;22.79;12.51;97800.84;5041840;28;20039;-85
2021/04/28 02:05:33;;;;;;;6.60;3.97;;;;;;;22.82;12.59;97801.97;5049691;28;20029;-84
2021/04/28 02:07:59;;;;;;;7.25;3.78;;;;;;;22.76;12.65;97795.28;5047797;28;20045;-85
2021/04/28 02:10:26;;;;;;;10.48;4.28;;;;;;;22.84;12.20;97797.53;5047403;28;20037;-85
2021/04/28 02:12:53;;;;;;;9.27;4.35;;;;;;;23.01;12.38;97801.94;5047295;28;20088;-84
2021/04/28 02:15:20;;;;;;;9.18;4.60;;;;;;;22.95;12.21;97797.28;5050653;28;20025;-85
2021/04/28 02:17:53;;;;;;;10.50;4.68;;;;;;;22.84;12.48;97793.94;5048601;28;20496;-85
2021/04/28 02:20:20;;;;;;;9.80;4.25;;;;;;;22.69;12.52;97788.63;5049399;28;20029;-85
2021/04/28 02:22:47;;;;;;;9.70;4.60;;;;;;;22.67;12.68;97793.88;5050050;28;20411;-85
2021/04/28 02:25:13;;;;;;;8.00;4.05;;;;;;;22.78;12.57;97799.25;5040810;28;20487;-85
2021/04/28 02:27:40;;;;;;;7.25;3.80;;;;;;;22.65;12.49;97789.94;5049974;28;20490;-85
2021/04/28 02:30:10;;;;;;;7.72;4.97;;;;;;;22.61;12.77;97784.41;5054080;28;20048;-85
2021/04/28 02:32:36;;;;;;;8.90;4.40;;;;;;;22.62;12.94;97788.00;5067125;28;20033;-84
2021/04/28 02:35:04;;;;;;;8.05;3.97;;;;;;;22.58;12.50;97781.66;5054430;28;20075;-85
2021/04/28 02:37:31;;;;;;;11.57;4.30;;;;;;;22.74;12.68;97792.16;5052965;28;20033;-85
2021/04/28 02:40:06;;;;;;;7.57;4.07;;;;;;;22.81;12.61;97780.78;5052335;28;20037;-85
2021/04/28 02:42:33;;;;;;;8.13;4.00;;;;;;;22.56;12.66;97781.31;5054819;28;20074;-85
2021/04/28 02:45:01;;;;;;;14.23;4.65;;;;;;;22.64;12.54;97789.13;5051459;28;20128;-85
2021/04/28 02:47:29;;;;;;;7.85;3.95;;;;;;;22.58;12.75;97785.25;5049628;28;20029;-85
2021/04/28 02:49:55;;;;;;;11.32;5.10;;;;;;;21.97;13.47;97789.63;5054421;28;20036;-85
2021/04/28 02:52:23;;;;;;;9.20;4.13;;;;;;;21.83;13.42;97795.44;5054262;28;20044;-85
2021/04/28 02:54:50;;;;;;;13.40;5.43;;;;;;;21.99;13.32;97788.00;5048494;28;20091;-85
2021/04/28 02:57:20;;;;;;;8.63;4.38;;;;;;;22.11;13.19;97783.78;5038405;28;20043;-85
2021/04/28 02:59:48;;;;;;;8.85;4.70;;;;;;;21.88;13.36;97781.00;5053700;28;20048;-85
2021/04/28 03:02:14;;;;;;;12.93;5.40;;;;;;;21.72;13.39;97789.25;5050945;28;20041;-85
2021/04/28 03:04:41;;;;;;;11.32;5.22;;;;;;;22.14;13.22;97788.53;5052100;28;20512;-85
2021/04/28 03:07:12;;;;;;;9.00;4.28;;;;;;;22.27;12.72;97789.47;5053813;28;20388;-85
2021/04/28 03:09:40;;;;;;;10.70;5.15;;;;;;;22.51;12.79;97785.41;5046694;28;20041;-85
2021/04/28 03:12:10;;;;;;;11.65;4.63;;;;;;;22.18;13.15;97792.03;5045689;28;20033;-85
2021/04/28 03:14:37;;;;;;;11.38;5.20;;;;;;;21.27;13.98;97797.94;5052383;28;20029;-85
2021/04/28 03:17:03;;;;;;;11.48;5.45;;;;;;;21.17;14.22;97795.28;5046541;28;20030;-85
2021/04/28 03:19:30;;;;;;;9.38;5.25;;;;;;;20.67;14.49;97804.34;5037873;28;20029;-85
2021/04/28 03:21:56;;;;;;;12.02;6.20;;;;;;;20.21;15.00;97806.06;5052603;28;20078;-85
2021/04/28 03:24:23;;;;;;;10.55;5.45;;;;;;;20.82;14.74;97801.38;5047517;28;20040;-85
2021/04/28 03:26:56;;;;;;;11.02;5.78;;;;;;;20.89;14.71;97795.66;5045280;28;20035;-85
2021/04/28 03:29:22;;;;;;;12.40;5.43;;;;;;;20.74;15.03;97797.88;5049342;28;20029;-85
2021/04/28 03:31:48;;;;;;;9.52;4.63;;;;;;;20.75;15.10;97796.66;5053501;28;20029;-85
2021/04/28 03:34:14;;;;;;;12.40;5.45;;;;;;;20.72;15.11;97794.72;5053148;28;20032;-85
2021/04/28 03:36:40;;;;;;;9.98;4.55;;;;;;;20.96;14.92;97787.19;5048628;28;20116;-85
2021/04/28 03:39:06;;;;;;;8.95;5.15;;;;;;;21.47;14.50;97792.44;5049107;28;20112;-85
2021/04/28 03:41:32;;;;;;;10.65;5.65;;;;;;;21.60;14.59;97793.44;5050127;28;20398;-85
2021/04/28 03:43:58;;;;;;;12.77;5.88;;;;;;;21.47;14.59;97794.47;5048810;28;20029;-85
2021/04/28 03:46:25;;;;;;;7.70;5.03;;;;;;;21.62;14.21;97795.78;5048092;28;20025;-85
2021/04/28 03:48:52;;;;;;;11.18;6.93;;;;;;;21.24;14.68;97798.78;5048104;28;20041;-85
2021/04/28 03:51:20;;;;;;;10.02;5.07;;;;;;;21.81;14.19;97797.88;5046765;28;20033;-85
2021/04/28 03:53:46;;;;;;;12.38;5.90;;;;;;;21.46;14.58;97801.25;5053431;28;20021;-85
2021/04/28 03:56:12;;;;;;;13.00;5.60;;;;;;;21.56;14.58;97801.09;5051428;28;20060;-85
2021/04/28 03:58:39;;;;;;;12.75;5.13;;;;;;;21.56;14.65;97805.88;5051972;28;20513;-85
2021/04/28 04:01:05;;;;;;;11.82;5.47;;;;;;;22.44;13.74;97802.31;5048565;28;20079;-85
2021/04/28 04:03:31;;;;;;;8.63;3.97;;;;;;;23.01;13.48;97809.56;5033296;28;20399;-85
2021/04/28 04:05:57;;;;;;;7.05;3.90;;;;;;;23.44;13.00;97804.59;5042876;28;20540;-85
2021/04/28 04:08:33;;;;;;;6.32;3.75;;;;;;;23.61;13.13;97805.41;5041607;28;20462;-84
2021/04/28 04:10:59;;;;;;;8.48;3.85;;;;;;;24.13;12.67;97811.72;5038335;28;20025;-87
2021/04/28 04:13:25;;;;;;;6.95;4.28;;;;;;;24.23;12.51;97807.81;5047825;28;20033;-87
2021/04/28 04:15:52;;;;;;;7.07;3.55;;;;;;;24.25;12.53;97810.19;5041362;28;20025;-85
2021/04/28 04:18:18;;;;;;;9.38;3.90;;;;;;;24.62;12.40;97813.13;5039497;28;20111;-85
2021/04/28 04:20:53;;;;;;;8.60;4.03;;;;;;;24.61;12.63;97802.34;5046721;28;20448;-85
2021/04/28 04:23:19;;;;;;;6.53;4.03;;;;;;;24.73;12.47;97810.84;5043248;28;20098;-85
2021/04/28 04:25:45;;;;;;;9.40;4.78;;;;;;;24.43;13.21;97818.91;5044368;28;20035;-85
2021/04/28 04:28:11;;;;;;;9.23;4.72;;;;;;;24.69;12.67;97817.78;5047375;28;20037;-87
2021/04/28 04:30:50;;;;;;;9.75;4.75;;;;;;;24.88;12.99;97808.41;5046994;28;20037;-86
2021/04/28 04:33:19;;;;;;;8.15;4.35;;;;;;;25.32;12.49;97810.25;5044460;28;20025;-87
2021/04/28 04:35:46;;;;;;;8.77;4.53;;;;;;;24.95;12.45;97808.19;5043525;28;20036;-85
2021/04/28 04:38:16;;;;;;;9.10;3.83;;;;;;;25.63;12.28;97815.34;5048575;28;20487;-85
2021/04/28 04:40:43;;;;;;;6.25;3.72;;;;;;;25.66;12.25;97818.06;5046954;28;20120;-85
2021/04/28 04:43:09;;;;;;;8.00;4.03;;;;;;;25.58;12.31;97813.13;5045917;28;20029;-86
2021/04/28 04:45:35;;;;;;;7.30;3.65;;;;;;;25.81;12.37;97815.59;5047322;28;20602;-86
2021/04/28 04:48:05;;;;;;;8.60;5.15;;;;;;;25.36;12.78;97813.78;5066198;28;20475;-85
2021/04/28 04:50:32;;;;;;;11.90;6.28;;;;;;;23.27;13.59;97808.56;5048523;28;20104;-86
2021/04/28 04:52:58;;;;;;;7.82;4.18;;;;;;;22.67;14.59;97809.88;5040694;28;20029;-86
2021/04/28 04:55:24;;;;;;;7.97;3.85;;;;;;;22.63;15.04;97811.97;5044642;28;20025;-84
2021/04/28 04:57:51;;;;;;;7.47;4.22;;;;;;;23.55;13.84;97816.34;5047971;28;20063;-86
2021/04/28 05:00:19;;;;;;;12.43;4.90;;;;;;;23.66;14.06;97811.28;5037583;28;20084;-86
2021/04/28 05:02:45;;;;;;;7.95;4.20;;;;;;;23.93;14.14;97811.78;5039763;28;20045;-86
2021/04/28 05:05:12;;;;;;;7.53;3.88;;;;;;;24.24;14.11;97815.00;5041026;28;20028;-85
2021/04/28 05:07:39;;;;;;;8.02;4.65;;;;;;;23.81;13.76;97817.31;5040793;28;20040;-88
2021/04/28 05:10:07;;;;;;;5.07;3.50;;;;;;;24.22;13.68;97819.50;5040520;28;20413;-90
2021/04/28 05:12:33;;;;;;;9.82;5.82;;;;;;;22.84;14.07;97819.13;5047378;28;20422;-89
2021/04/28 05:14:59;;;;;;;11.23;6.45;;;;;;;21.67;15.09;97821.25;5038275;28;20040;-90
2021/04/28 05:17:26;;;;;;;7.72;4.00;;;;;;;22.10;15.33;97824.13;5048641;28;20037;-90
2021/04/28 05:19:52;;;;;;;5.45;3.38;;;;;;;23.57;14.47;97813.88;5042646;28;20043;-89
2021/04/28 05:22:22;;;;;;;8.60;4.60;;;;;;;22.97;14.70;97817.25;5051112;28;20529;-85
2021/04/28 05:24:49;;;;;;;6.53;3.25;;;;;;;22.09;15.38;97814.19;5045639;28;20120;-85
2021/04/28 05:27:16;;;;;;;5.57;3.50;;;;;;;22.51;15.09;97812.56;5052021;28;20037;-86
2021/04/28 05:29:42;;;;;;;8.77;5.57;;;;;;;22.08;15.35;97815.38;5042410;28;20064;-87
2021/04/28 05:32:08;;;;;;;9.80;5.30;;;;;;;21.19;16.29;97816.00;5046594;28;20422;-87
2021/04/28 05:34:35;;;;;;;9.05;4.95;;;;;;;23.23;14.43;97822.66;5038302;28;20029;-87
2021/04/28 05:37:02;;;;;;;8.80;4.03;;;;;;;23.34;14.93;97814.81;5045838;28;20061;-86
2021/04/28 05:39:28;;;;;;;4.55;3.03;;;;;;;24.37;13.69;97810.25;5046624;28;20472;-84
2021/04/28 05:41:54;;;;;;;5.15;3.40;;;;;;;24.59;13.35;97811.25;5036311;28;20033;-85
2021/04/28 05:44:20;;;;;;;9.05;4.60;;;;;;;23.67;13.57;97812.84;5038327;28;20049;-85
2021/04/28 05:46:47;;;;;;;7.18;2.97;;;;;;;25.21;13.21;97803.41;5034537;28;20499;-85
2021/04/28 05:49:16;;;;;;;7.38;3.20;;;;;;;25.90;13.07;97810.84;5034487;28;20036;-85
2021/04/28 05:51:42;;;;;;;4.75;2.83;;;;;;;25.40;13.07;97808.03;5036769;28;20104;-85
2021/04/28 05:54:09;;;;;;;7.20;3.08;;;;;;;24.85;13.48;97812.13;5050047;28;20060;-85
2021/04/28 05:56:38;;;;;;;9.43;4.97;;;;;;;23.79;13.89;97812.13;5035521;28;20033;-85
2021/04/28 05:59:04;;;;;;;14.05;5.63;;;;;;;22.41;14.62;97816.38;5050138;28;20056;-85
2021/04/28 06:01:30;;;;;;;10.18;5.20;;;;;;;22.29;15.43;97809.41;5043598;28;20037;-85
2021/04/28 06:03:56;;;;;;;8.10;4.38;;;;;;;22.26;15.43;97809.47;5036554;28;20026;-85
2021/04/28 06:06:23;;;;;;;9.00;3.95;;;;;;;22.16;15.59;97818.84;5039279;28;20534;-85
2021/04/28 06:08:50;;;;;;;4.60;2.85;;;;;;;22.52;16.37;97816.97;5038706;28;20513;-85
2021/04/28 06:11:16;;;;;;;12.02;4.85;;;;;;;22.27;15.23;97816.63;5034981;28;20033;-85
2021/04/28 06:13:44;;;;;;;9.00;4.00;;;;;;;23.04;15.09;97814.28;5037857;28;20025;-85
2021/04/28 06:16:11;;;;;;;4.80;2.72;;;;;;;23.55;15.25;97818.38;5051248;28;20029;-85
2021/04/28 06:18:37;;;;;;;8.57;4.38;;;;;;;23.56;14.21;97814.31;5049802;28;20127;-85
2021/04/28 06:21:05;;;;;;;8.23;3.78;;;;;;;23.02;15.03;97813.94;5041059;28;20021;-85
2021/04/28 06:23:32;;;;;;;4.28;2.30;;;;;;;25.21;13.54;97812.63;5034898;28;20029;-85
2021/04/28 06:25:58;;;;;;;5.05;2.40;;;;;;;26.06;12.35;97809.91;5035925;28;20032;-85
2021/04/28 06:28:24;;;;;;;4.75;2.40;;;;;;;25.04;14.07;97813.19;5035797;28;20029;-85
2021/04/28 06:30:51;;;;;;;6.32;2.95;;;;;;;24.53;13.83;97810.19;5040267;28;20486;-85
2021/04/28 06:33:17;;;;;;;6.43;3.67;;;;;;;23.98;13.46;97807.66;5035883;28;20566;-85
2021/04/28 06:35:43;;;;;;;10.13;3.22;;;;;;;24.74;13.68;97797.56;5040163;28;20386;-85
2021/04/28 06:38:09;;;;;;;4.53;2.00;;;;;;;25.27;13.37;97799.59;5038002;28;20034;-85
2021/04/28 06:40:36;;;;;;;4.22;1.92;;;;;;;25.94;12.45;97791.00;5038428;28;20064;-85
2021/04/28 06:43:04;;;;;;;3.28;2.05;;;;;;;24.92;13.67;97792.25;5039509;28;20032;-85
2021/04/28 06:45:31;;;;;;;5.10;2.80;;;;;;;23.89;13.84;97797.06;5048963;28;20033;-85
2021/04/28 06:47:58;;;;;;;6.35;1.50;;;;;;;25.84;13.35;97786.53;5052775;28;20378;-85
2021/04/28 06:50:24;;;;;;;4.65;2.65;;;;;;;24.09;13.50;97785.75;5035387;28;20037;-85
2021/04/28 06:52:51;;;;;;;3.13;1.80;;;;;;;25.90;12.30;97781.91;5042757;28;20069;-85
2021/04/28 06:55:17;;;;;;;4.95;2.45;;;;;;;24.96;12.88;97778.09;5035479;28;20080;-85
2021/04/28 06:57:44;;;;;;;2.97;1.58;;;;;;;26.34;12.71;97777.19;5040329;28;20505;-85
2021/04/28 07:00:10;;;;;;;1.50;1.05;;;;;;;25.67;12.56;97776.69;5034905;28;20037;-85
2021/04/28 07:02:36;;;;;;;4.30;2.15;;;;;;;24.25;13.39;97774.50;5035312;28;20052;-84
2021/04/28 07:05:02;;;;;;;3.90;1.60;;;;;;;25.13;13.31;97771.94;5041472;28;20030;-85
2021/04/28 07:07:28;;;;;;;5.50;2.85;;;;;;;24.58;15.19;97769.56;5033709;28;20069;-85
2021/04/28 07:09:54;;;;;;;3.45;2.10;;;;;;;26.08;12.59;97776.47;5043728;28;20493;-85
2021/04/28 07:12:20;;;;;;;5.32;1.92;;;;;;;26.89;12.36;97772.75;5051768;28;20063;-85
2021/04/28 07:14:47;;;;;;;3.38;1.92;;;;;;;25.08;13.29;97775.31;5069150;28;20040;-85
2021/04/28 07:17:13;;;;;;;5.75;3.78;;;;;;;25.39;14.30;97781.94;5052143;28;20072;-85
2021/04/28 07:19:39;;;;;;;2.33;1.42;;;;;;;26.67;12.74;97778.38;5037295;28;20558;-85
2021/04/28 07:22:05;;;;;;;2.50;1.55;;;;;;;28.12;11.61;97776.25;5038846;28;20478;-85
2021/04/28 07:24:31;;;;;;;3.65;1.80;;;;;;;26.91;11.41;97775.91;5034989;28;20033;-85
2021/04/28 07:26:57;;;;;;;4.05;2.20;;;;;;;25.76;12.74;97779.59;5042404;28;20480;-85
2021/04/28 07:29:23;;;;;;;3.22;1.83;;;;;;;25.80;13.06;97783.06;5061974;28;20117;-85
2021/04/28 07:31:50;;;;;;;1.90;1.27;;;;;;;27.71;11.85;97780.34;5034861;28;20387;-85
2021/04/28 07:34:16;;;;;;;2.63;1.52;;;;;;;27.19;12.79;97777.63;5037368;28;20197;-85
2021/04/28 07:36:43;;;;;;;4.20;1.92;;;;;;;27.29;12.99;97779.22;5037264;28;20032;-85
2021/04/28 07:39:11;;;;;;;2.40;1.35;;;;;;;27.46;11.93;97788.25;5037240;28;20059;-85
2021/04/28 07:41:37;;;;;;;3.17;1.38;;;;;;;28.24;11.19;97789.41;5038033;28;20025;-85
2021/04/28 07:44:04;;;;;;;3.60;1.13;;;;;;;28.57;10.98;97793.19;5047162;28;20056;-85
2021/04/28 07:46:32;;;;;;;2.00;1.33;;;;;;;29.15;10.50;97783.72;5038243;28;20038;-85
2021/04/28 07:49:03;;;;;;;1.75;1.00;;;;;;;28.55;11.22;97777.94;5037464;28;20036;-85
2021/04/28 07:51:33;;;;;;;1.67;1.33;;;;;;;27.39;12.88;97780.88;5037969;28;20529;-85
2021/04/28 07:54:00;;;;;;;3.22;1.38;;;;;;;25.28;14.61;97786.31;5034180;28;20468;-85
2021/04/28 07:56:26;;;;;;;2.60;1.33;;;;;;;27.27;12.92;97790.19;5046487;28;20056;-84
2021/04/28 07:58:53;;;;;;;2.28;1.23;;;;;;;27.57;12.40;97778.13;5042162;28;20479;-85
2021/04/28 08:01:19;;;;;;;3.92;1.48;;;;;;;28.82;11.77;97772.31;5053616;28;20063;-85
2021/04/28 08:03:46;;;;;;;1.60;1.05;;;;;;;29.68;10.78;97772.66;5052498;28;20435;-85
2021/04/28 08:06:12;;;;;;;2.60;1.52;;;;;;;29.47;11.27;97768.84;5045176;28;20033;-85
2021/04/28 08:08:38;;;;;;;3.38;2.17;;;;;;;26.83;12.41;97778.22;5032250;28;20034;-85
2021/04/28 08:11:04;;;;;;;4.40;2.15;;;;;;;25.24;13.54;97780.81;5037088;28;20557;-85
2021/04/28 08:13:31;;;;;;;3.92;3.05;;;;;;;23.05;15.66;97776.66;5034230;28;20065;-85
2021/04/28 08:15:57;;;;;;;3.28;2.05;;;;;;;24.93;14.42;97771.34;5034242;28;20053;-85
2021/04/28 08:18:24;;;;;;;1.70;1.10;;;;;;;27.70;12.98;97772.38;5037532;28;20025;-85
2021/04/28 08:20:50;;;;;;;3.05;1.67;;;;;;;28.50;12.19;97770.91;5037129;28;21077;-85
2021/04/28 08:23:16;;;;;;;1.83;1.10;;;;;;;29.49;11.06;97771.19;5038558;28;20559;-85
2021/04/28 08:25:42;;;;;;;1.02;0.93;;;;;;;28.82;11.75;97772.31;5042038;28;20127;-85
2021/04/28 08:28:10;;;;;;;1.48;1.10;;;;;;;28.82;11.76;97766.66;5037510;28;20022;-85
2021/04/28 08:30:36;;;;;;;1.27;1.02;;;;;;;28.92;11.00;97764.59;5035413;28;20029;-85
2021/04/28 08:33:02;;;;;;;2.28;1.48;;;;;;;28.33;11.32;97771.69;5036685;28;20045;-85
2021/04/28 08:35:29;;;;;;;1.52;1.08;;;;;;;28.84;11.23;97761.31;5038899;28;20036;-85
2021/04/28 08:37:55;;;;;;;2.38;1.13;;;;;;;29.57;11.02;97758.25;5053486;28;20040;-85
2021/04/28 08:40:21;;;;;;;5.43;1.40;;;;;;;29.61;11.31;97756.03;5039586;28;20123;-85
2021/04/28 08:42:47;;;;;;;1.38;1.20;;;;;;;28.27;11.24;97763.06;5036080;28;20063;-85
2021/04/28 08:45:16;;;;;;;1.73;1.27;;;;;;;29.08;11.19;97759.34;5048678;28;20584;-85
2021/04/28 08:47:43;;;;;;;1.60;1.38;;;;;;;29.09;10.89;97758.09;5041127;28;20360;-85
2021/04/28 08:50:11;;;;;;;2.85;1.50;;;;;;;29.19;10.74;97761.72;5033388;28;20032;-85
2021/04/28 08:52:38;;;;;;;1.95;1.40;;;;;;;28.42;11.09;97758.38;5041299;28;20044;-85
2021/04/28 08:55:07;;;;;;;2.58;1.70;;;;;;;27.37;12.78;97758.78;5041524;28;20040;-85
2021/04/28 08:57:34;;;;;;;1.50;1.30;;;;;;;28.01;12.19;97750.50;5053258;28;20501;-85
2021/04/28 09:00:00;;;;;;;2.97;1.48;;;;;;;29.02;11.37;97761.28;5041347;28;20491;-85
2021/04/28 09:02:27;;;;;;;3.63;1.55;;;;;;;27.80;12.15;97752.16;5044709;28;20104;-85
2021/04/28 09:05:09;;;;;;;2.80;1.20;;;;;;;26.14;14.22;97751.38;5043943;28;20108;-85
2021/04/28 09:07:36;;;;;;;2.88;1.70;;;;;;;26.80;13.13;97744.53;5047463;28;20118;-85
2021/04/28 09:10:14;;;;;;;1.65;1.45;;;;;;;28.18;12.09;97753.81;5052369;28;20045;-85
2021/04/28 09:12:49;;;;;;;2.63;1.50;;;;;;;28.21;11.86;97747.22;5035818;28;20034;-85
2021/04/28 09:15:28;;;;;;;4.35;1.52;;;;;;;28.32;11.93;97739.06;5035838;28;20378;-85
2021/04/28 09:17:54;;;;;;;1.77;1.33;;;;;;;27.20;11.59;97757.44;5050358;28;20036;-85
2021/04/28 09:20:32;;;;;;;1.60;1.10;;;;;;;28.64;11.89;97736.38;5034348;28;20029;-85
2021/04/28 09:23:05;;;;;;;2.13;1.63;;;;;;;28.90;10.67;97736.00;5047096;28;20029;-85
2021/04/28 09:26:14;;;;;;;2.60;1.50;;;;;;;28.00;12.80;97738.44;5034962;28;20037;-85
2021/04/28 09:28:48;;;;;;;1.40;1.20;;;;;;;28.81;12.86;97724.72;5008753;28;20526;-85
2021/04/28 09:31:15;;;;;;;1.63;1.45;;;;;;;28.74;11.19;97728.69;5042885;28;20033;-85
2021/04/28 09:33:42;;;;;;;4.15;2.10;;;;;;;29.01;11.00;97713.69;5050306;28;20029;-85
2021/04/28 09:36:08;;;;;;;1.73;1.40;;;;;;;27.97;12.65;97725.22;5045627;28;20036;-85
2021/04/28 09:38:55;;;;;;;4.80;1.55;;;;;;;28.86;11.72;97716.41;5040454;28;20069;-85
2021/04/28 09:41:36;;;;;;;3.22;1.55;;;;;;;27.51;12.32;97712.31;5045654;28;20389;-84
2021/04/28 09:44:20;;;;;;;3.70;1.48;;;;;;;28.27;11.52;97705.78;5048175;28;20031;-84
2021/04/28 09:47:14;;;;;;;5.85;2.78;;;;;;;25.38;12.93;97703.69;5055508;28;20070;-85
2021/04/28 09:49:46;;;;;;;2.38;1.33;;;;;;;26.58;14.55;97697.41;5041296;28;20029;-84
2021/04/28 09:52:13;;;;;;;2.03;1.67;;;;;;;25.94;13.68;97692.56;5053994;28;20044;-85
2021/04/28 09:54:41;;;;;;;4.80;1.80;;;;;;;26.97;13.68;97704.41;5049358;28;20486;-85
2021/04/28 09:57:07;;;;;;;1.80;1.45;;;;;;;28.36;11.89;97694.50;5051389;28;20452;-85
2021/04/28 09:59:50;;;;;;;2.40;1.23;;;;;;;27.14;11.41;97688.78;5055829;28;20049;-85
2021/04/28 10:02:31;;;;;;;1.40;1.30;;;;;;;27.87;12.21;97684.13;5055374;28;20033;-85
2021/04/28 10:05:17;;;;;;;3.03;1.92;;;;;;;26.58;13.31;97679.75;5055672;28;20021;-85
2021/04/28 10:07:43;;;;;;;1.70;1.35;;;;;;;27.64;11.93;97676.28;5036863;28;20404;-85
2021/04/28 10:10:11;;;;;;;2.42;1.23;;;;;;;29.45;10.93;97674.41;5036599;28;20124;-85
2021/04/28 10:12:37;;;;;;;3.45;1.80;;;;;;;28.10;11.21;97676.34;5048557;28;20521;-85
2021/04/28 10:15:06;;;;;;;2.38;1.30;;;;;;;29.02;11.14;97665.16;5046536;28;20056;-85
2021/04/28 10:17:33;;;;;;;4.60;1.30;;;;;;;29.84;11.36;97662.69;5050007;28;20025;-85
2021/04/28 10:20:00;;;;;;;1.50;1.20;;;;;;;28.80;12.11;97655.38;5042206;28;20490;-85
2021/04/28 10:22:27;;;;;;;2.03;1.65;;;;;;;29.38;11.57;97664.22;5054592;28;20025;-86
2021/04/28 10:24:59;;;;;;;1.95;1.25;;;;;;;30.29;10.49;97647.34;5055970;28;20548;-85
2021/04/28 10:27:27;;;;;;;3.15;1.90;;;;;;;27.40;13.20;97655.53;5054239;28;20022;-86
2021/04/28 10:29:54;;;;;;;4.10;1.38;;;;;;;28.43;12.27;97646.94;5054178;28;20029;-87
2021/04/28 10:32:23;;;;;;;2.95;1.85;;;;;;;28.34;12.00;97635.66;5055452;28;20040;-86
2021/04/28 10:34:54;;;;;;;1.83;1.60;;;;;;;29.49;11.66;97641.84;5054154;28;20029;-85
2021/04/28 10:37:22;;;;;;;2.97;1.50;;;;;;;30.01;11.13;97641.13;5040153;28;20041;-85
2021/04/28 10:39:49;;;;;;;1.73;1.33;;;;;;;30.63;10.38;97640.25;5045297;28;20030;-86
2021/04/28 10:42:31;;;;;;;2.55;1.65;;;;;;;27.77;11.61;97645.09;5054880;28;20037;-85
2021/04/28 10:44:58;;;;;;;2.72;1.58;;;;;;;27.84;12.71;97639.91;5055252;28;20383;-85
2021/04/28 10:47:36;;;;;;;3.97;1.77;;;;;;;25.90;14.02;97644.88;5040289;28;20069;-85
2021/04/28 10:50:09;;;;;;;5.22;2.20;;;;;;;24.83;15.06;97646.09;5039967;28;20410;-85
2021/04/28 10:52:45;;;;;;;2.40;1.38;;;;;;;27.25;13.29;97644.06;5054614;28;20029;-85
2021/04/28 10:55:50;;;;;;;3.53;1.35;;;;;;;27.60;12.15;97641.81;5054182;28;20090;-85
2021/04/28 10:58:32;;;;;;;2.08;1.35;;;;;;;27.10;12.52;97639.47;5053674;28;20398;-85
2021/04/28 11:01:07;;;;;;;3.60;2.28;;;;;;;28.12;12.62;97634.31;5035176;28;20108;-85
2021/04/28 11:03:53;;;;;;;4.30;2.30;;;;;;;26.24;13.60;97635.59;5044273;28;20033;-85
2021/04/28 11:06:23;;;;;;;2.33;1.75;;;;;;;26.04;13.22;97633.06;5047764;28;20037;-85
2021/04/28 11:08:55;;;;;;;7.43;1.63;;;;;;;27.16;13.68;97624.31;5055062;28;20029;-85
2021/04/28 11:11:44;;;;;;;2.97;1.85;;;;;;;26.97;11.79;97621.91;5046048;28;20506;-85
2021/04/28 11:14:18;;;;;;;1.77;1.52;;;;;;;25.78;13.78;97616.78;5035180;28;20484;-85
2021/04/28 11:16:50;;;;;;;2.25;1.50;;;;;;;25.49;13.75;97616.22;5035173;28;20037;-85
2021/04/28 11:19:24;;;;;;;2.38;1.85;;;;;;;25.46;14.35;97617.16;5035739;28;20068;-85
2021/04/28 11:22:10;;;;;;;2.50;1.73;;;;;;;26.65;12.94;97606.28;5040639;28;20029;-85
2021/04/28 11:25:22;;;;;;;2.50;1.70;;;;;;;26.94;12.62;97608.72;5045748;28;20043;-85
2021/04/28 11:28:08;;;;;;;2.10;1.65;;;;;;;28.31;12.91;97605.56;5032872;28;20046;-85
2021/04/28 11:30:44;;;;;;;2.08;1.52;;;;;;;29.43;11.69;97601.31;5051081;28;20037;-85
2021/04/28 11:33:20;;;;;;;5.18;2.08;;;;;;;27.93;10.92;97603.25;5054393;28;20029;-85
2021/04/28 11:35:52;;;;;;;3.08;1.90;;;;;;;26.94;12.89;97603.09;5051194;28;20436;-86
2021/04/28 11:38:22;;;;;;;2.58;1.73;;;;;;;26.84;12.46;97607.16;5036981;28;20495;-85
2021/04/28 11:40:51;;;;;;;2.17;1.17;;;;;;;28.21;12.03;97586.28;5054058;28;20132;-85